N225SB KILG-KPNE
Flight info
| Callsign | N225SB |
|---|---|
| Flight time | 0h 22m |
| Altitude | 4000 |
| Route | MXE |
| Aircraft | SR22/L-SDGRY/S |
Departure
| Time | 2026-04-26 23:36 |
|---|---|
| Airport | Wilmington Airport (KILG) |
Arrival
| Time | 2026-04-26 23:58 |
|---|---|
| Airport | Northeast Philadelphia Airport (KPNE) |
| Time | Latitude | Longitude | Altitude | Speed | Heading |
|---|---|---|---|---|---|
| 2026-04-26 23:32 | 39.67497 | -75.61206 | 79 ft | 0 kts | 83° |
| 2026-04-26 23:34 | 39.67576 | -75.61211 | 76 ft | 21 kts | 315° |
| 2026-04-26 23:34 | 39.67681 | -75.61360 | 69 ft | 24 kts | 310° |
| 2026-04-26 23:34 | 39.67784 | -75.61523 | 78 ft | 16 kts | 306° |
| 2026-04-26 23:35 | 39.67806 | -75.61560 | 74 ft | 1 kts | 309° |
| 2026-04-26 23:35 | 39.67834 | -75.61588 | 78 ft | 10 kts | 323° |
| 2026-04-26 23:35 | 39.67898 | -75.61507 | 73 ft | 34 kts | 75° |
| 2026-04-26 23:35 | 39.68000 | -75.60925 | 102 ft | 88 kts | 76° |
| 2026-04-26 23:36 | 39.68148 | -75.60077 | 251 ft | 101 kts | 77° |
| 2026-04-26 23:36 | 39.68488 | -75.59219 | 487 ft | 120 kts | 37° |
| 2026-04-26 23:36 | 39.69329 | -75.58976 | 835 ft | 125 kts | 9° |
| 2026-04-26 23:36 | 39.70192 | -75.59010 | 1202 ft | 125 kts | 358° |
| 2026-04-26 23:37 | 39.71094 | -75.59169 | 1377 ft | 139 kts | 354° |
| 2026-04-26 23:37 | 39.72072 | -75.59404 | 1509 ft | 149 kts | 353° |
| 2026-04-26 23:37 | 39.73116 | -75.59622 | 1502 ft | 150 kts | 3° |
| 2026-04-26 23:37 | 39.74124 | -75.59506 | 1509 ft | 145 kts | 9° |
| 2026-04-26 23:38 | 39.75127 | -75.59392 | 1510 ft | 144 kts | 9° |
| 2026-04-26 23:38 | 39.76119 | -75.59291 | 1502 ft | 143 kts | 7° |
| 2026-04-26 23:38 | 39.77069 | -75.59186 | 1671 ft | 130 kts | 9° |
| 2026-04-26 23:38 | 39.77931 | -75.58954 | 1914 ft | 126 kts | 18° |
| 2026-04-26 23:39 | 39.78778 | -75.58651 | 1994 ft | 132 kts | 18° |
| 2026-04-26 23:39 | 39.79701 | -75.58320 | 2000 ft | 142 kts | 18° |
| 2026-04-26 23:39 | 39.80665 | -75.57963 | 2011 ft | 146 kts | 19° |
| 2026-04-26 23:39 | 39.81639 | -75.57601 | 2012 ft | 143 kts | 18° |
| 2026-04-26 23:40 | 39.82586 | -75.57246 | 1991 ft | 142 kts | 18° |
| 2026-04-26 23:40 | 39.83482 | -75.56754 | 2001 ft | 137 kts | 29° |
| 2026-04-26 23:40 | 39.84323 | -75.56198 | 1992 ft | 133 kts | 28° |
| 2026-04-26 23:40 | 39.85138 | -75.55676 | 2003 ft | 129 kts | 28° |
| 2026-04-26 23:41 | 39.85945 | -75.55173 | 1998 ft | 131 kts | 28° |
| 2026-04-26 23:41 | 39.86773 | -75.54651 | 2005 ft | 134 kts | 27° |
| 2026-04-26 23:41 | 39.87626 | -75.54123 | 2010 ft | 138 kts | 28° |
| 2026-04-26 23:41 | 39.88492 | -75.53565 | 2016 ft | 140 kts | 28° |
| 2026-04-26 23:42 | 39.89374 | -75.53004 | 2011 ft | 142 kts | 28° |
| 2026-04-26 23:42 | 39.91126 | -75.51888 | 2013 ft | 140 kts | 28° |
| 2026-04-26 23:42 | 39.92007 | -75.51325 | 2017 ft | 144 kts | 28° |
| 2026-04-26 23:43 | 39.92917 | -75.50750 | 2018 ft | 144 kts | 28° |
| 2026-04-26 23:43 | 39.93798 | -75.50193 | 2016 ft | 141 kts | 28° |
| 2026-04-26 23:43 | 39.94690 | -75.49653 | 2024 ft | 143 kts | 28° |
| 2026-04-26 23:43 | 39.95590 | -75.49083 | 2015 ft | 143 kts | 29° |
| 2026-04-26 23:44 | 39.96441 | -75.48479 | 2023 ft | 142 kts | 39° |
| 2026-04-26 23:44 | 39.97146 | -75.47543 | 2026 ft | 142 kts | 49° |
| 2026-04-26 23:44 | 39.97820 | -75.46605 | 2009 ft | 140 kts | 48° |
| 2026-04-26 23:44 | 39.98488 | -75.45702 | 2016 ft | 138 kts | 47° |
| 2026-04-26 23:45 | 39.99153 | -75.44781 | 2012 ft | 140 kts | 47° |
| 2026-04-26 23:45 | 39.99808 | -75.43859 | 2014 ft | 138 kts | 48° |
| 2026-04-26 23:45 | 40.00459 | -75.42951 | 2020 ft | 139 kts | 49° |
| 2026-04-26 23:45 | 40.01124 | -75.42022 | 2007 ft | 141 kts | 48° |
| 2026-04-26 23:46 | 40.01794 | -75.41106 | 2022 ft | 140 kts | 47° |
| 2026-04-26 23:46 | 40.02464 | -75.40175 | 2016 ft | 141 kts | 48° |
| 2026-04-26 23:46 | 40.03130 | -75.39240 | 2004 ft | 141 kts | 48° |
| 2026-04-26 23:46 | 40.03790 | -75.38314 | 2005 ft | 139 kts | 48° |
| 2026-04-26 23:47 | 40.04449 | -75.37389 | 2016 ft | 140 kts | 47° |
| 2026-04-26 23:47 | 40.05009 | -75.36381 | 1994 ft | 137 kts | 74° |
| 2026-04-26 23:47 | 40.05065 | -75.35165 | 2005 ft | 138 kts | 87° |
| 2026-04-26 23:47 | 40.05111 | -75.33925 | 2012 ft | 136 kts | 85° |
| 2026-04-26 23:48 | 40.05201 | -75.32699 | 2001 ft | 135 kts | 82° |
| 2026-04-26 23:48 | 40.05315 | -75.31483 | 2005 ft | 135 kts | 81° |
| 2026-04-26 23:48 | 40.05427 | -75.30269 | 2006 ft | 136 kts | 82° |
| 2026-04-26 23:48 | 40.05545 | -75.29041 | 2016 ft | 137 kts | 81° |
| 2026-04-26 23:49 | 40.05663 | -75.27806 | 2007 ft | 137 kts | 82° |
| 2026-04-26 23:49 | 40.05779 | -75.26561 | 2013 ft | 141 kts | 82° |
| 2026-04-26 23:49 | 40.05897 | -75.25280 | 2007 ft | 143 kts | 82° |
| 2026-04-26 23:49 | 40.06021 | -75.24019 | 2009 ft | 141 kts | 81° |
| 2026-04-26 23:50 | 40.06145 | -75.22755 | 2008 ft | 139 kts | 81° |
| 2026-04-26 23:50 | 40.06225 | -75.21505 | 1999 ft | 138 kts | 95° |
| 2026-04-26 23:50 | 40.05732 | -75.20441 | 2001 ft | 143 kts | 135° |
| 2026-04-26 23:50 | 40.04772 | -75.19939 | 1767 ft | 161 kts | 175° |
| 2026-04-26 23:51 | 40.03636 | -75.20083 | 1557 ft | 167 kts | 184° |
| 2026-04-26 23:51 | 40.02476 | -75.20239 | 1337 ft | 167 kts | 181° |
| 2026-04-26 23:51 | 40.01328 | -75.20362 | 1099 ft | 164 kts | 181° |
| 2026-04-26 23:51 | 40.00277 | -75.20109 | 1002 ft | 148 kts | 154° |
| 2026-04-26 23:52 | 39.99462 | -75.19423 | 991 ft | 135 kts | 134° |
| 2026-04-26 23:52 | 39.98909 | -75.18488 | 986 ft | 127 kts | 115° |
| 2026-04-26 23:52 | 39.98625 | -75.17423 | 989 ft | 123 kts | 98° |
| 2026-04-26 23:52 | 39.98607 | -75.16328 | 992 ft | 120 kts | 81° |
| 2026-04-26 23:53 | 39.98839 | -75.15300 | 993 ft | 118 kts | 65° |
| 2026-04-26 23:53 | 39.99293 | -75.14412 | 999 ft | 119 kts | 50° |
| 2026-04-26 23:53 | 39.99852 | -75.13605 | 1004 ft | 121 kts | 50° |
| 2026-04-26 23:53 | 40.00401 | -75.12789 | 1006 ft | 121 kts | 50° |
| 2026-04-26 23:54 | 40.00967 | -75.11960 | 999 ft | 122 kts | 51° |
| 2026-04-26 23:54 | 40.01526 | -75.11144 | 1004 ft | 119 kts | 50° |
| 2026-04-26 23:54 | 40.02064 | -75.10352 | 1001 ft | 112 kts | 50° |
| 2026-04-26 23:54 | 40.02535 | -75.09669 | 991 ft | 89 kts | 51° |
| 2026-04-26 23:55 | 40.02894 | -75.09148 | 945 ft | 73 kts | 52° |
| 2026-04-26 23:55 | 40.03225 | -75.08670 | 949 ft | 68 kts | 51° |
| 2026-04-26 23:55 | 40.03581 | -75.08168 | 1020 ft | 81 kts | 51° |
| 2026-04-26 23:55 | 40.03956 | -75.07598 | 1020 ft | 85 kts | 50° |
| 2026-04-26 23:56 | 40.04355 | -75.07016 | 1006 ft | 88 kts | 48° |
| 2026-04-26 23:56 | 40.04771 | -75.06430 | 873 ft | 88 kts | 49° |
| 2026-04-26 23:56 | 40.05152 | -75.05857 | 834 ft | 84 kts | 53° |
| 2026-04-26 23:56 | 40.05537 | -75.05255 | 754 ft | 87 kts | 52° |
| 2026-04-26 23:57 | 40.05926 | -75.04656 | 675 ft | 86 kts | 48° |
| 2026-04-26 23:57 | 40.06346 | -75.04091 | 572 ft | 87 kts | 47° |
| 2026-04-26 23:57 | 40.06762 | -75.03484 | 467 ft | 89 kts | 53° |
| 2026-04-26 23:57 | 40.07154 | -75.02889 | 386 ft | 87 kts | 50° |
| 2026-04-26 23:58 | 40.07577 | -75.02313 | 244 ft | 90 kts | 53° |
| 2026-04-26 23:58 | 40.07982 | -75.01701 | 113 ft | 82 kts | 54° |
| 2026-04-26 23:58 | 40.08244 | -75.01302 | 120 ft | 45 kts | 52° |
| 2026-04-26 23:58 | 40.08332 | -75.01259 | 120 ft | 13 kts | 303° |
| 2026-04-26 23:59 | 40.08417 | -75.01262 | 120 ft | 18 kts | 59° |
| 2026-04-26 23:59 | 40.08483 | -75.01156 | 121 ft | 15 kts | 57° |
| 2026-04-26 23:59 | 40.08540 | -75.01086 | 120 ft | 1 kts | 47° |
| 2026-04-26 23:59 | 40.08541 | -75.01084 | 120 ft | 0 kts | 47° |